Time;durP1;ratioP1;P1;durP2;ratioP2;P2;SDS_P1;SDS_P2;PMS_P1;PMS_P2;Temp;Humidity;BMP_temperature;BMP_pressure;BME280_temperature;BME280_humidity;BME280_pressure;Samples;Min_cycle;Max_cycle;Signal;HPM_P1;HPM_P2
2021/12/19 00:00:15;;;;;;;;;;;;;;;-2.23;100.00;93626.34;5090060;28;20528;-84
2021/12/19 00:03:01;;;;;;;;;;;;;;;-2.31;100.00;93624.44;5090118;28;20394;-84
2021/12/19 00:08:40;;;;;;;;;;;;;;;-2.33;100.00;93620.44;5090164;28;20332;-84
2021/12/19 00:11:07;;;;;;;;;;;;;;;-2.19;100.00;93620.16;5090164;28;20333;-86
2021/12/19 00:13:36;;;;;;;;;;;;;;;-2.34;100.00;93616.34;5090019;28;19927;-84
2021/12/19 00:16:02;;;;;;;;;;;;;;;-2.43;100.00;93605.28;5093058;28;19978;-84
2021/12/19 00:18:29;;;;;;;;;;;;;;;-2.52;100.00;93611.03;5094465;28;19920;-85
2021/12/19 00:20:56;;;;;;;;;;;;;;;-2.56;100.00;93608.78;5094327;28;19962;-84
2021/12/19 00:23:22;;;;;;;;;;;;;;;-2.67;100.00;93613.84;5094038;28;19920;-84
2021/12/19 00:25:49;;;;;;;;;;;;;;;-2.77;100.00;93602.88;5094099;28;19920;-84
2021/12/19 00:28:16;;;;;;;;;;;;;;;-2.89;100.00;93607.94;5093811;28;20383;-84
2021/12/19 00:30:44;;;;;;;;;;;;;;;-2.75;100.00;93609.41;5093973;28;19920;-85
2021/12/19 00:33:10;;;;;;;;;;;;;;;-2.72;100.00;93603.34;5093718;28;19924;-85
2021/12/19 00:35:37;;;;;;;;;;;;;;;-2.60;100.00;93612.44;5094159;28;19931;-85
2021/12/19 00:38:04;;;;;;;;;;;;;;;-2.43;100.00;93608.63;5093649;28;19927;-86
2021/12/19 00:40:32;;;;;;;;;;;;;;;-2.21;100.00;93604.41;5093634;28;20411;-85
2021/12/19 00:43:05;;;;;;;;;;;;;;;-2.00;100.00;93598.56;5093950;28;20014;-86
2021/12/19 00:45:34;;;;;;;;;;;;;;;-1.82;100.00;93606.34;5093558;28;19960;-86
2021/12/19 00:48:03;;;;;;;;;;;;;;;-1.72;100.00;93588.78;5093719;28;19924;-88
2021/12/19 00:50:31;;;;;;;;;;;;;;;-1.61;100.00;93600.50;5093544;28;20039;-83
2021/12/19 00:52:58;;;;;;;;;;;;;;;-1.55;100.00;93600.00;5092819;28;19924;-85
2021/12/19 00:55:25;;;;;;;;;;;;;;;-1.45;100.00;93599.25;5093118;28;19920;-84
2021/12/19 00:57:52;;;;;;;;;;;;;;;-1.40;100.00;93597.94;5092703;28;19927;-86
2021/12/19 01:00:20;;;;;;;;;;;;;;;-1.40;100.00;93605.50;5092906;28;19971;-84
2021/12/19 01:02:50;;;;;;;;;;;;;;;-1.56;100.00;93598.41;5092879;28;19924;-86
2021/12/19 01:05:18;;;;;;;;;;;;;;;-1.64;100.00;93596.50;5093340;28;19947;-87
2021/12/19 01:07:45;;;;;;;;;;;;;;;-1.72;100.00;93598.84;5092881;28;19955;-85
2021/12/19 01:10:12;;;;;;;;;;;;;;;-2.10;100.00;93595.19;5092398;28;19924;-85
2021/12/19 01:12:38;;;;;;;;;;;;;;;-2.40;100.00;93587.44;5092768;28;19920;-86
2021/12/19 01:15:06;;;;;;;;;;;;;;;-2.71;100.00;93584.81;5092918;28;19931;-86
2021/12/19 01:17:32;;;;;;;;;;;;;;;-2.83;100.00;93591.56;5092621;28;20010;-86
2021/12/19 01:19:59;;;;;;;;;;;;;;;-2.77;100.00;93578.56;5092582;28;20019;-86
2021/12/19 01:22:27;;;;;;;;;;;;;;;-2.86;100.00;93577.53;5092720;28;19924;-86
2021/12/19 01:24:54;;;;;;;;;;;;;;;-2.81;100.00;93574.66;5092052;28;19924;-84
2021/12/19 01:27:21;;;;;;;;;;;;;;;-2.73;100.00;93561.50;5091402;28;20303;-87
2021/12/19 01:29:48;;;;;;;;;;;;;;;-2.85;100.00;93568.28;5092716;28;19969;-87
2021/12/19 01:32:15;;;;;;;;;;;;;;;-2.66;100.00;93565.13;5092425;28;19954;-87
2021/12/19 01:34:42;;;;;;;;;;;;;;;-2.49;100.00;93556.28;5092607;28;19920;-87
2021/12/19 01:37:09;;;;;;;;;;;;;;;-2.31;100.00;93556.50;5091766;28;20015;-87
2021/12/19 01:39:37;;;;;;;;;;;;;;;-2.15;100.00;93546.03;5092245;28;19966;-87
2021/12/19 01:42:04;;;;;;;;;;;;;;;-2.06;100.00;93551.22;5092323;28;19932;-84
2021/12/19 01:44:31;;;;;;;;;;;;;;;-1.94;100.00;93542.66;5091535;28;20462;-86
2021/12/19 01:46:59;;;;;;;;;;;;;;;-1.83;100.00;93548.56;5091903;28;20391;-85
2021/12/19 01:49:25;;;;;;;;;;;;;;;-1.88;100.00;93541.38;5092087;28;19920;-85
2021/12/19 01:51:52;;;;;;;;;;;;;;;-1.87;100.00;93545.50;5091382;28;20639;-85
2021/12/19 01:54:19;;;;;;;;;;;;;;;-2.36;100.00;93547.75;5092139;28;20381;-84
2021/12/19 01:56:49;;;;;;;;;;;;;;;-2.16;100.00;93541.88;5090904;28;21304;-85
2021/12/19 01:59:16;;;;;;;;;;;;;;;-2.12;100.00;93539.94;5091825;28;20357;-83
2021/12/19 02:01:43;;;;;;;;;;;;;;;-1.99;100.00;93542.25;5091846;28;20274;-83
2021/12/19 02:04:10;;;;;;;;;;;;;;;-1.94;100.00;93541.91;5091711;28;19931;-84
2021/12/19 02:06:36;;;;;;;;;;;;;;;-2.21;100.00;93536.47;5091772;28;19924;-82
2021/12/19 02:09:06;;;;;;;;;;;;;;;-2.28;100.00;93530.31;5091759;28;19920;-82
2021/12/19 02:11:33;;;;;;;;;;;;;;;-2.22;100.00;93529.81;5091332;28;19920;-83
2021/12/19 02:14:01;;;;;;;;;;;;;;;-2.01;100.00;93529.00;5091708;28;19920;-84
2021/12/19 02:16:27;;;;;;;;;;;;;;;-1.90;100.00;93525.63;5091656;28;19920;-83
2021/12/19 02:18:54;;;;;;;;;;;;;;;-1.89;100.00;93528.00;5091376;28;19924;-83
2021/12/19 02:21:22;;;;;;;;;;;;;;;-1.97;100.00;93524.50;5091366;28;19920;-83
2021/12/19 02:23:49;;;;;;;;;;;;;;;-1.90;100.00;93528.91;5091253;28;20393;-87
2021/12/19 02:26:16;;;;;;;;;;;;;;;-2.06;100.00;93531.09;5091922;28;20397;-83
2021/12/19 02:28:42;;;;;;;;;;;;;;;-1.98;100.00;93531.28;5091689;28;19927;-83
2021/12/19 02:31:09;;;;;;;;;;;;;;;-2.03;100.00;93521.56;5091856;28;19924;-86
2021/12/19 02:33:41;;;;;;;;;;;;;;;-1.90;100.00;93518.84;5091603;28;19924;-86
2021/12/19 02:36:22;;;;;;;;;;;;;;;-1.83;100.00;93518.34;5087401;28;19944;-87
2021/12/19 02:49:48;;;;;;;;;;;;;;;-1.56;100.00;93522.84;5091417;28;20003;-83
2021/12/19 02:52:16;;;;;;;;;;;;;;;-1.53;100.00;93520.03;5091162;28;20485;-83
2021/12/19 02:54:44;;;;;;;;;;;;;;;-1.66;100.00;93512.69;5090750;28;19920;-85
2021/12/19 02:57:11;;;;;;;;;;;;;;;-1.51;100.00;93513.16;5090911;28;19928;-83
2021/12/19 02:59:38;;;;;;;;;;;;;;;-1.48;100.00;93517.16;5090390;28;19920;-83
2021/12/19 03:02:04;;;;;;;;;;;;;;;-1.43;100.00;93516.75;5090263;28;19927;-82
2021/12/19 03:04:31;;;;;;;;;;;;;;;-1.36;100.00;93507.75;5090691;28;19924;-83
2021/12/19 03:06:57;;;;;;;;;;;;;;;-1.28;100.00;93510.44;5090394;28;19920;-83
2021/12/19 03:09:42;;;;;;;;;;;;;;;-1.24;100.00;93508.44;5090696;28;19931;-82
2021/12/19 03:12:25;;;;;;;;;;;;;;;-1.18;100.00;93510.44;5090288;28;19920;-82
2021/12/19 03:20:20;;;;;;;;;;;;;;;-1.07;100.00;93496.91;5090211;28;19931;-86
2021/12/19 03:22:47;;;;;;;;;;;;;;;-1.04;100.00;93503.44;5090489;28;20424;-86
2021/12/19 03:25:13;;;;;;;;;;;;;;;-1.02;100.00;93499.84;5090024;28;19924;-86
2021/12/19 03:27:41;;;;;;;;;;;;;;;-1.01;100.00;93498.13;5090332;28;19927;-86
2021/12/19 03:30:09;;;;;;;;;;;;;;;-1.31;100.00;93508.16;5090345;28;19920;-86
2021/12/19 03:32:35;;;;;;;;;;;;;;;-1.47;100.00;93503.63;5090160;28;19926;-86
2021/12/19 03:35:02;;;;;;;;;;;;;;;-1.67;100.00;93508.59;5090361;28;19950;-86
2021/12/19 03:37:29;;;;;;;;;;;;;;;-1.94;100.00;93497.34;5090160;28;20328;-86
2021/12/19 03:40:07;;;;;;;;;;;;;;;-1.94;100.00;93497.34;5090333;28;19927;-86
2021/12/19 03:42:35;;;;;;;;;;;;;;;-1.77;100.00;93485.91;5089896;28;19975;-86
2021/12/19 03:45:03;;;;;;;;;;;;;;;-2.05;100.00;93483.16;5089754;28;20023;-87
2021/12/19 03:47:30;;;;;;;;;;;;;;;-2.07;100.00;93491.75;5089444;28;20690;-87
2021/12/19 03:49:57;;;;;;;;;;;;;;;-1.89;100.00;93485.19;5089502;28;20018;-87
2021/12/19 03:52:24;;;;;;;;;;;;;;;-2.12;100.00;93492.13;5090032;28;19924;-87
2021/12/19 03:54:51;;;;;;;;;;;;;;;-2.16;100.00;93494.06;5089968;28;20416;-86
2021/12/19 03:57:17;;;;;;;;;;;;;;;-2.07;100.00;93482.47;5089883;28;19970;-87
2021/12/19 03:59:47;;;;;;;;;;;;;;;-1.96;100.00;93488.34;5090097;28;19920;-86
2021/12/19 04:02:23;;;;;;;;;;;;;;;-1.92;100.00;93477.91;5089993;28;19942;-85
2021/12/19 04:04:50;;;;;;;;;;;;;;;-1.92;100.00;93480.41;5089892;28;19931;-87
2021/12/19 04:07:17;;;;;;;;;;;;;;;-2.05;100.00;93472.25;5090087;28;19965;-86
2021/12/19 04:09:45;;;;;;;;;;;;;;;-2.23;100.00;93477.09;5090036;28;20014;-88
2021/12/19 04:12:16;;;;;;;;;;;;;;;-2.07;100.00;93469.09;5089153;28;20317;-88
2021/12/19 04:14:50;;;;;;;;;;;;;;;-2.05;100.00;93467.22;5090010;28;19920;-90
2021/12/19 04:17:20;;;;;;;;;;;;;;;-1.95;100.00;93462.25;5089127;28;19920;-87
2021/12/19 04:19:47;;;;;;;;;;;;;;;-1.84;100.00;93456.31;5089818;28;19920;-87
2021/12/19 04:22:14;;;;;;;;;;;;;;;-1.72;100.00;93455.28;5089330;28;19924;-85
2021/12/19 04:24:40;;;;;;;;;;;;;;;-1.69;100.00;93455.03;5089567;28;20271;-86
2021/12/19 04:27:07;;;;;;;;;;;;;;;-1.76;100.00;93449.72;5089772;28;19931;-86
2021/12/19 04:29:43;;;;;;;;;;;;;;;-1.75;100.00;93456.34;5089594;28;19920;-89
2021/12/19 04:32:23;;;;;;;;;;;;;;;-1.79;100.00;93447.47;5089045;28;19952;-90
2021/12/19 04:35:04;;;;;;;;;;;;;;;-2.11;100.00;93445.91;5088747;28;19924;-90
2021/12/19 04:38:05;;;;;;;;;;;;;;;-2.05;100.00;93445.38;5088695;28;19927;-90
2021/12/19 04:40:46;;;;;;;;;;;;;;;-1.99;100.00;93443.28;5088457;28;20375;-91
2021/12/19 04:54:54;;;;;;;;;;;;;;;-1.99;100.00;93433.22;5074690;28;20466;-86
2021/12/19 04:57:30;;;;;;;;;;;;;;;-2.21;100.00;93427.44;5089279;28;19927;-86
2021/12/19 05:00:04;;;;;;;;;;;;;;;-2.35;100.00;93424.34;5089263;28;19971;-86
2021/12/19 05:02:46;;;;;;;;;;;;;;;-2.33;100.00;93421.69;5091378;28;20921;-87
2021/12/19 05:16:26;;;;;;;;;;;;;;;-2.42;100.00;93443.34;5093092;28;19927;-89
2021/12/19 05:19:06;;;;;;;;;;;;;;;-2.43;100.00;93439.25;5092631;28;20276;-89
2021/12/19 05:21:41;;;;;;;;;;;;;;;-2.30;100.00;93439.06;5092330;28;19924;-89
2021/12/19 05:24:44;;;;;;;;;;;;;;;-2.22;100.00;93441.72;5092515;28;19950;-90
2021/12/19 05:27:18;;;;;;;;;;;;;;;-2.25;100.00;93442.00;5092401;28;20769;-88
2021/12/19 05:29:53;;;;;;;;;;;;;;;-2.10;100.00;93434.91;5089077;28;20360;-88
2021/12/19 05:32:22;;;;;;;;;;;;;;;-2.04;100.00;93444.47;5092001;28;19924;-87
2021/12/19 05:34:49;;;;;;;;;;;;;;;-2.06;100.00;93441.28;5092816;28;20462;-86
2021/12/19 05:45:43;;;;;;;;;;;;;;;-2.24;100.00;93438.56;5092229;28;19927;-90
2021/12/19 05:48:19;;;;;;;;;;;;;;;-2.37;100.00;93432.94;5091825;28;19954;-89
2021/12/19 05:50:55;;;;;;;;;;;;;;;-2.26;100.00;93437.09;5091965;28;19920;-90
2021/12/19 05:53:48;;;;;;;;;;;;;;;-2.16;100.00;93440.44;5091976;28;20002;-94
2021/12/19 05:59:23;;;;;;;;;;;;;;;-2.07;100.00;93437.19;5092102;28;19919;-86
2021/12/19 06:01:57;;;;;;;;;;;;;;;-2.13;100.00;93440.16;5091845;28;20321;-88
2021/12/19 06:14:33;;;;;;;;;;;;;;;-1.69;100.00;93416.44;5029749;28;20395;-93
2021/12/19 06:40:45;;;;;;;;;;;;;;;-1.92;100.00;93399.03;5089430;28;19924;-83
2021/12/19 06:43:12;;;;;;;;;;;;;;;-1.85;100.00;93396.81;5092890;28;19931;-84
2021/12/19 06:45:38;;;;;;;;;;;;;;;-1.84;100.00;93394.19;5092523;28;19928;-83
2021/12/19 06:48:05;;;;;;;;;;;;;;;-1.74;100.00;93391.66;5092576;28;19977;-84
2021/12/19 06:50:33;;;;;;;;;;;;;;;-1.69;100.00;93398.81;5092098;28;19924;-84
2021/12/19 06:53:00;;;;;;;;;;;;;;;-1.61;100.00;93397.25;5092045;28;20431;-84
2021/12/19 06:55:27;;;;;;;;;;;;;;;-1.59;100.00;93402.16;5092130;28;19969;-84
2021/12/19 06:57:55;;;;;;;;;;;;;;;-1.53;100.00;93398.34;5092039;28;19948;-84
2021/12/19 07:00:25;;;;;;;;;;;;;;;-1.44;100.00;93392.50;5091938;28;19928;-84
2021/12/19 07:02:54;;;;;;;;;;;;;;;-1.38;100.00;93394.47;5092145;28;19928;-83
2021/12/19 07:05:20;;;;;;;;;;;;;;;-1.35;100.00;93396.75;5091870;28;19932;-83
2021/12/19 07:07:47;;;;;;;;;;;;;;;-1.22;100.00;93398.19;5092307;28;19924;-82
2021/12/19 07:10:14;;;;;;;;;;;;;;;-1.16;100.00;93400.19;5091824;28;19928;-83
2021/12/19 07:12:40;;;;;;;;;;;;;;;-1.04;100.00;93390.78;5091677;28;19924;-83
2021/12/19 07:15:09;;;;;;;;;;;;;;;-0.93;100.00;93399.13;5089786;28;19935;-82
2021/12/19 07:17:36;;;;;;;;;;;;;;;-0.89;100.00;93397.94;5091457;28;19928;-83
2021/12/19 07:20:03;;;;;;;;;;;;;;;-0.84;100.00;93396.59;5091632;28;20388;-82
2021/12/19 07:22:30;;;;;;;;;;;;;;;-0.89;100.00;93397.94;5091643;28;19924;-84
2021/12/19 07:24:56;;;;;;;;;;;;;;;-0.85;100.00;93397.53;5090104;28;19924;-84
2021/12/19 07:27:23;;;;;;;;;;;;;;;-0.83;100.00;93398.16;5090246;28;19928;-83
2021/12/19 07:29:50;;;;;;;;;;;;;;;-1.01;100.00;93394.75;5090990;28;20397;-84
2021/12/19 07:32:17;;;;;;;;;;;;;;;-0.85;100.00;93392.47;5091919;28;19924;-84
2021/12/19 07:34:46;;;;;;;;;;;;;;;-0.81;100.00;93393.00;5091539;28;20451;-84
2021/12/19 07:37:13;;;;;;;;;;;;;;;-0.85;100.00;93395.00;5091340;28;19930;-84
2021/12/19 07:39:52;;;;;;;;;;;;;;;-1.18;100.00;93333.19;5091648;28;19924;-84
2021/12/19 07:42:18;;;;;;;;;;;;;;;-0.69;100.00;93381.81;5091528;28;19963;-83
2021/12/19 07:44:45;;;;;;;;;;;;;;;-0.60;100.00;93392.03;5091227;28;20362;-83
2021/12/19 07:47:12;;;;;;;;;;;;;;;-0.55;100.00;93380.59;5091479;28;19935;-84
2021/12/19 07:49:40;;;;;;;;;;;;;;;-0.74;100.00;93398.31;5091419;28;19968;-84
2021/12/19 07:52:07;;;;;;;;;;;;;;;-0.78;100.00;93390.22;5090788;28;19935;-84
2021/12/19 07:54:34;;;;;;;;;;;;;;;-0.74;100.00;93383.16;5089645;28;20275;-83
2021/12/19 07:57:00;;;;;;;;;;;;;;;-0.79;100.00;93387.81;5088862;28;19928;-84
2021/12/19 07:59:27;;;;;;;;;;;;;;;-0.80;100.00;93389.53;5091244;28;19947;-83
2021/12/19 08:01:53;;;;;;;;;;;;;;;-0.88;100.00;93381.88;5091328;28;19932;-83
2021/12/19 08:04:20;;;;;;;;;;;;;;;-0.99;100.00;93383.59;5090973;28;19924;-84
2021/12/19 08:06:48;;;;;;;;;;;;;;;-0.90;100.00;93378.66;5091016;28;19978;-84
2021/12/19 08:09:23;;;;;;;;;;;;;;;-0.89;100.00;93373.50;5091231;28;19932;-83
2021/12/19 08:11:51;;;;;;;;;;;;;;;-0.83;100.00;93367.91;5091161;28;19928;-83
2021/12/19 08:14:17;;;;;;;;;;;;;;;-0.74;100.00;93356.19;5091134;28;20743;-84
2021/12/19 08:16:45;;;;;;;;;;;;;;;-0.70;100.00;93355.00;5090966;28;19924;-84
2021/12/19 08:19:12;;;;;;;;;;;;;;;-0.88;100.00;93324.66;5090867;28;19931;-85
2021/12/19 08:21:38;;;;;;;;;;;;;;;-0.66;100.00;93352.22;5090922;28;20038;-84
2021/12/19 08:24:10;;;;;;;;;;;;;;;-0.59;100.00;93345.69;5091092;28;19923;-84
2021/12/19 08:26:37;;;;;;;;;;;;;;;-0.57;100.00;93344.63;5090863;28;19924;-84
2021/12/19 08:29:04;;;;;;;;;;;;;;;-0.52;100.00;93349.25;5090660;28;19928;-84
2021/12/19 08:31:30;;;;;;;;;;;;;;;-0.51;100.00;93345.00;5091075;28;20382;-84
2021/12/19 08:33:58;;;;;;;;;;;;;;;-0.51;100.00;93345.00;5091209;28;19927;-83
2021/12/19 08:36:24;;;;;;;;;;;;;;;-0.50;100.00;93341.53;5092864;28;20080;-83
2021/12/19 08:38:51;;;;;;;;;;;;;;;-0.50;100.00;93339.81;5094595;28;19928;-84
2021/12/19 08:41:19;;;;;;;;;;;;;;;-0.48;100.00;93340.47;5094800;28;19931;-84
2021/12/19 08:43:46;;;;;;;;;;;;;;;-0.38;100.00;93339.63;5094629;28;20405;-84
2021/12/19 08:46:13;;;;;;;;;;;;;;;-0.39;100.00;93340.56;5094377;28;19924;-85
2021/12/19 08:48:39;;;;;;;;;;;;;;;-0.70;100.00;93339.06;5094439;28;20370;-83
2021/12/19 08:51:07;;;;;;;;;;;;;;;-1.20;100.00;93335.88;5094498;28;20392;-83
2021/12/19 08:53:33;;;;;;;;;;;;;;;-1.04;100.00;93332.78;5094675;28;19928;-84
2021/12/19 08:56:00;;;;;;;;;;;;;;;-1.02;100.00;93337.69;5094300;28;19931;-84
2021/12/19 08:58:29;;;;;;;;;;;;;;;-0.97;100.00;93333.03;5094435;28;20280;-84
2021/12/19 09:00:58;;;;;;;;;;;;;;;-0.84;100.00;93330.22;5094703;28;19935;-84
2021/12/19 09:03:24;;;;;;;;;;;;;;;-0.66;100.00;93324.47;5094253;28;19924;-85
2021/12/19 09:05:51;;;;;;;;;;;;;;;-0.58;100.00;93327.88;5094242;28;19924;-84
2021/12/19 09:08:17;;;;;;;;;;;;;;;-0.47;100.00;93321.84;5092680;28;19924;-85
2021/12/19 09:10:44;;;;;;;;;;;;;;;-0.31;100.00;93312.91;5093905;28;19933;-85
2021/12/19 09:13:11;;;;;;;;;;;;;;;-0.27;100.00;93315.00;5093318;28;19928;-84
2021/12/19 09:15:39;;;;;;;;;;;;;;;-0.26;100.00;93313.28;5093324;28;19931;-85
2021/12/19 09:18:05;;;;;;;;;;;;;;;-0.17;100.00;93304.88;5094027;28;19977;-84
2021/12/19 09:20:32;;;;;;;;;;;;;;;-0.06;100.00;93310.63;5094216;28;19981;-83
2021/12/19 09:22:58;;;;;;;;;;;;;;;-0.24;100.00;93308.09;5090694;28;19924;-85
2021/12/19 09:25:25;;;;;;;;;;;;;;;-0.16;100.00;93310.69;5093483;28;19927;-85
2021/12/19 09:27:51;;;;;;;;;;;;;;;-0.23;100.00;93307.16;5093867;28;19924;-85
2021/12/19 09:30:18;;;;;;;;;;;;;;;-0.57;100.00;93299.19;5093532;28;19928;-83
2021/12/19 09:32:47;;;;;;;;;;;;;;;-0.50;100.00;93291.88;5093840;28;19977;-86
2021/12/19 09:35:16;;;;;;;;;;;;;;;-0.36;100.00;93297.38;5093841;28;19998;-85
2021/12/19 09:37:42;;;;;;;;;;;;;;;-0.44;100.00;93285.47;5093648;28;20275;-85
2021/12/19 09:40:11;;;;;;;;;;;;;;;-0.57;100.00;93273.97;5093302;28;19928;-85
2021/12/19 09:42:46;;;;;;;;;;;;;;;-0.41;100.00;93275.88;5093026;28;20373;-86
2021/12/19 09:45:13;;;;;;;;;;;;;;;-0.20;100.00;93264.75;5093288;28;20310;-88
2021/12/19 09:47:40;;;;;;;;;;;;;;;-0.07;100.00;93263.59;5092418;28;19947;-86
2021/12/19 09:50:08;;;;;;;;;;;;;;;0.02;100.00;93262.75;5093529;28;20350;-84
2021/12/19 09:52:35;;;;;;;;;;;;;;;-0.06;100.00;93262.66;5093438;28;19927;-84
2021/12/19 09:55:02;;;;;;;;;;;;;;;-0.10;100.00;93262.16;5093137;28;20293;-84
2021/12/19 09:57:28;;;;;;;;;;;;;;;0.05;100.00;93247.28;5093285;28;19981;-84
2021/12/19 09:59:55;;;;;;;;;;;;;;;0.15;100.00;93243.91;5093404;28;19924;-84
2021/12/19 10:02:22;;;;;;;;;;;;;;;0.19;100.00;93242.69;5093025;28;19928;-84
2021/12/19 10:04:48;;;;;;;;;;;;;;;0.26;100.00;93231.84;5093187;28;19924;-84
2021/12/19 10:07:18;;;;;;;;;;;;;;;0.19;100.00;93230.06;5091595;28;19928;-84
2021/12/19 10:09:54;;;;;;;;;;;;;;;0.30;100.00;93216.38;5074986;28;19924;-85
2021/12/19 10:12:37;;;;;;;;;;;;;;;0.41;100.00;93207.78;5093121;28;19930;-85
2021/12/19 10:15:06;;;;;;;;;;;;;;;0.45;100.00;93209.06;5092810;28;20279;-85
2021/12/19 10:17:32;;;;;;;;;;;;;;;0.53;100.00;93199.81;5092808;28;20291;-86
2021/12/19 10:20:02;;;;;;;;;;;;;;;0.65;100.00;93200.34;5092761;28;19924;-86
2021/12/19 10:22:32;;;;;;;;;;;;;;;0.68;100.00;93195.97;5092820;28;19970;-86
2021/12/19 10:25:13;;;;;;;;;;;;;;;0.78;100.00;93197.44;5092546;28;19924;-86
2021/12/19 10:27:40;;;;;;;;;;;;;;;0.82;100.00;93195.38;5092998;28;20298;-87
2021/12/19 10:30:12;;;;;;;;;;;;;;;0.88;100.00;93189.72;5092623;28;19969;-86
2021/12/19 10:32:49;;;;;;;;;;;;;;;0.95;100.00;93186.59;5092844;28;20419;-86
2021/12/19 10:35:17;;;;;;;;;;;;;;;0.99;100.00;93181.09;5092380;28;19924;-87
2021/12/19 10:37:45;;;;;;;;;;;;;;;1.05;100.00;93188.06;5092633;28;19930;-85
2021/12/19 10:40:12;;;;;;;;;;;;;;;1.08;100.00;93183.66;5092311;28;19928;-86
2021/12/19 10:42:46;;;;;;;;;;;;;;;1.09;100.00;93188.56;5092490;28;19924;-86
2021/12/19 10:48:11;;;;;;;;;;;;;;;1.14;100.00;93176.25;5091862;28;20011;-87
2021/12/19 10:50:43;;;;;;;;;;;;;;;1.14;100.00;93172.91;5092355;28;19924;-87
2021/12/19 10:53:12;;;;;;;;;;;;;;;1.14;100.00;93176.25;5092161;28;19971;-86
2021/12/19 10:55:40;;;;;;;;;;;;;;;1.20;100.00;93170.56;5091923;28;19928;-87
2021/12/19 10:58:18;;;;;;;;;;;;;;;1.22;100.00;93165.38;5092033;28;19973;-87
2021/12/19 11:00:58;;;;;;;;;;;;;;;1.22;100.00;93156.97;5092121;28;19969;-87
2021/12/19 11:03:52;;;;;;;;;;;;;;;1.27;100.00;93148.00;5091879;28;19924;-87
2021/12/19 11:06:25;;;;;;;;;;;;;;;1.36;100.00;93141.22;5044372;28;19924;-86
2021/12/19 11:08:58;;;;;;;;;;;;;;;1.45;100.00;93136.97;5091907;28;19924;-86
2021/12/19 11:11:41;;;;;;;;;;;;;;;1.54;100.00;93136.03;5089081;28;19928;-89
2021/12/19 11:14:12;;;;;;;;;;;;;;;1.58;100.00;93127.16;5091253;28;19928;-90
2021/12/19 11:19:36;;;;;;;;;;;;;;;1.56;100.00;93123.19;5091813;28;19931;-87
2021/12/19 11:22:02;;;;;;;;;;;;;;;1.56;100.00;93130.78;5092624;28;20397;-90
2021/12/19 11:24:44;;;;;;;;;;;;;;;1.56;100.00;93115.59;5091652;28;19924;-88
2021/12/19 11:27:13;;;;;;;;;;;;;;;1.52;100.00;93121.94;5092899;28;19924;-91
2021/12/19 11:29:40;;;;;;;;;;;;;;;1.56;100.00;93113.06;5092020;28;19928;-89
2021/12/19 11:32:09;;;;;;;;;;;;;;;1.56;100.00;93110.53;5091887;28;19924;-88
2021/12/19 11:34:43;;;;;;;;;;;;;;;1.56;100.00;93108.81;5091600;28;19959;-89
2021/12/19 11:37:12;;;;;;;;;;;;;;;1.52;100.00;93104.22;5091292;28;19924;-89
2021/12/19 11:39:41;;;;;;;;;;;;;;;1.56;100.00;93093.63;5091552;28;19924;-90
2021/12/19 11:42:10;;;;;;;;;;;;;;;1.52;100.00;93105.00;5091179;28;20336;-89
2021/12/19 11:44:40;;;;;;;;;;;;;;;1.49;100.00;93090.13;5091439;28;19953;-89
2021/12/19 11:47:14;;;;;;;;;;;;;;;1.47;100.00;93094.56;5091254;28;20312;-90
2021/12/19 11:49:40;;;;;;;;;;;;;;;1.49;100.00;93096.94;5091497;28;19928;-90
2021/12/19 11:52:24;;;;;;;;;;;;;;;1.49;100.00;93085.06;5091461;28;19928;-91
2021/12/19 11:55:05;;;;;;;;;;;;;;;1.49;100.00;93079.22;5091322;28;19938;-90
2021/12/19 11:57:33;;;;;;;;;;;;;;;1.44;100.00;93075.41;5091000;28;19928;-89
2021/12/19 12:00:25;;;;;;;;;;;;;;;1.46;100.00;93078.59;5091103;28;19924;-90
2021/12/19 12:03:11;;;;;;;;;;;;;;;1.48;100.00;93063.22;5091047;28;20376;-90
2021/12/19 12:05:38;;;;;;;;;;;;;;;1.45;100.00;93058.50;5091115;28;20369;-89
2021/12/19 12:08:16;;;;;;;;;;;;;;;1.40;100.00;93060.69;5091955;28;19990;-90
2021/12/19 12:11:01;;;;;;;;;;;;;;;1.38;100.00;93060.06;5092109;28;20378;-88
2021/12/19 12:13:33;;;;;;;;;;;;;;;1.36;100.00;93054.34;5095163;28;19974;-89
2021/12/19 12:16:24;;;;;;;;;;;;;;;1.37;100.00;93048.34;5074884;28;19931;-88
2021/12/19 12:18:54;;;;;;;;;;;;;;;1.38;100.00;93032.22;5074529;28;19971;-88
2021/12/19 12:21:28;;;;;;;;;;;;;;;1.36;100.00;93029.06;5075106;28;19928;-89
2021/12/19 12:23:56;;;;;;;;;;;;;;;1.40;100.00;93027.78;5082322;28;19928;-89
2021/12/19 12:26:25;;;;;;;;;;;;;;;1.41;100.00;93026.84;5094961;28;20334;-88
2021/12/19 12:28:53;;;;;;;;;;;;;;;1.41;100.00;93026.84;5094958;28;19924;-87
2021/12/19 12:31:23;;;;;;;;;;;;;;;1.44;100.00;93024.00;5095099;28;19924;-89
2021/12/19 12:33:50;;;;;;;;;;;;;;;1.43;100.00;93012.31;5095709;28;20382;-89
2021/12/19 12:36:17;;;;;;;;;;;;;;;1.42;100.00;93008.16;5094800;28;19924;-89
2021/12/19 12:38:46;;;;;;;;;;;;;;;1.35;100.00;93005.50;5094835;28;20023;-86
2021/12/19 12:41:27;;;;;;;;;;;;;;;1.32;100.00;93008.34;5093312;28;19924;-89
2021/12/19 12:43:55;;;;;;;;;;;;;;;1.24;100.00;92999.00;5092052;28;19967;-87
2021/12/19 12:46:22;;;;;;;;;;;;;;;1.29;100.00;92991.72;5094755;28;19970;-87
2021/12/19 12:48:55;;;;;;;;;;;;;;;1.28;100.00;92997.75;5094375;28;19924;-88
2021/12/19 12:51:26;;;;;;;;;;;;;;;1.33;100.00;92998.06;5092047;28;19927;-87
2021/12/19 12:53:56;;;;;;;;;;;;;;;1.35;100.00;93000.44;5094531;28;19924;-87
2021/12/19 12:56:23;;;;;;;;;;;;;;;1.38;100.00;92997.56;5094125;28;19924;-88
2021/12/19 12:58:51;;;;;;;;;;;;;;;1.35;100.00;92992.84;5093922;28;19928;-87
2021/12/19 13:01:37;;;;;;;;;;;;;;;1.30;100.00;92985.72;5093347;28;19932;-88
2021/12/19 13:04:13;;;;;;;;;;;;;;;1.28;100.00;92980.03;5094504;28;19935;-87
2021/12/19 13:06:42;;;;;;;;;;;;;;;1.28;100.00;92984.28;5093266;28;19982;-87
2021/12/19 13:09:13;;;;;;;;;;;;;;;1.27;100.00;92978.44;5094160;28;19924;-87
2021/12/19 13:11:40;;;;;;;;;;;;;;;1.26;100.00;92983.66;5094072;28;19932;-87
2021/12/19 13:14:13;;;;;;;;;;;;;;;1.28;100.00;92974.97;5093965;28;19934;-86
2021/12/19 13:16:43;;;;;;;;;;;;;;;1.29;100.00;92974.00;5092939;28;19928;-87
2021/12/19 13:19:11;;;;;;;;;;;;;;;1.28;100.00;92967.38;5093930;28;19924;-88
2021/12/19 13:21:52;;;;;;;;;;;;;;;1.27;100.00;92970.06;5093419;28;20386;-87
2021/12/19 13:24:21;;;;;;;;;;;;;;;1.29;100.00;92965.66;5089808;28;19986;-86
2021/12/19 13:26:47;;;;;;;;;;;;;;;1.29;100.00;92963.88;5093804;28;19924;-86
2021/12/19 13:29:18;;;;;;;;;;;;;;;1.24;100.00;92958.50;5093738;28;19963;-86
2021/12/19 13:31:44;;;;;;;;;;;;;;;1.26;100.00;92956.63;5093609;28;19935;-86
2021/12/19 13:34:14;;;;;;;;;;;;;;;1.26;100.00;92956.63;5093828;28;19931;-86
2021/12/19 13:36:40;;;;;;;;;;;;;;;1.27;100.00;92963.28;5093553;28;19928;-87
2021/12/19 13:39:17;;;;;;;;;;;;;;;1.23;100.00;92967.06;5093419;28;19931;-87
2021/12/19 13:41:43;;;;;;;;;;;;;;;1.16;100.00;92961.06;5093581;28;19928;-86
2021/12/19 13:44:10;;;;;;;;;;;;;;;1.10;100.00;92964.22;5093355;28;19924;-87
2021/12/19 13:46:36;;;;;;;;;;;;;;;1.14;100.00;92947.75;5093272;28;19939;-86
2021/12/19 13:49:04;;;;;;;;;;;;;;;1.19;100.00;92945.53;5093292;28;19931;-86
2021/12/19 13:51:34;;;;;;;;;;;;;;;1.19;100.00;92948.88;5093484;28;19928;-86
2021/12/19 13:54:05;;;;;;;;;;;;;;;1.24;100.00;92943.34;5093365;28;19967;-86
2021/12/19 13:56:33;;;;;;;;;;;;;;;1.26;100.00;92936.38;5093072;28;19924;-86
2021/12/19 13:59:00;;;;;;;;;;;;;;;1.29;100.00;92937.81;5093107;28;19928;-86
2021/12/19 14:01:28;;;;;;;;;;;;;;;1.26;100.00;92936.38;5093170;28;20370;-87
2021/12/19 14:03:56;;;;;;;;;;;;;;;1.24;100.00;92934.97;5093180;28;20362;-86
2021/12/19 14:06:24;;;;;;;;;;;;;;;1.22;100.00;92937.66;5093214;28;19930;-86
2021/12/19 14:08:56;;;;;;;;;;;;;;;1.21;100.00;92936.06;5092979;28;19973;-86
2021/12/19 14:11:23;;;;;;;;;;;;;;;1.23;100.00;92923.25;5092804;28;19931;-87
2021/12/19 14:14:02;;;;;;;;;;;;;;;1.23;100.00;92915.66;5093035;28;19937;-86
2021/12/19 14:16:30;;;;;;;;;;;;;;;1.23;100.00;92908.06;5093023;28;19949;-86
2021/12/19 14:18:57;;;;;;;;;;;;;;;1.23;100.00;92911.41;5091137;28;19931;-86
2021/12/19 14:21:31;;;;;;;;;;;;;;;1.23;100.00;92906.34;5092829;28;19989;-86
2021/12/19 14:24:13;;;;;;;;;;;;;;;1.20;100.00;92915.03;5092628;28;19935;-86
2021/12/19 14:26:40;;;;;;;;;;;;;;;1.17;100.00;92902.69;5092569;28;19924;-85